sensor_id;sensor_type;location;lat;lon;timestamp;P1;durP1;ratioP1;P2;durP2;ratioP2
27269;SDS011;14769;56.934;24.176;2022-08-19T00:00:59;17.50;;;12.35;;
27269;SDS011;14769;56.934;24.176;2022-08-19T00:02:01;21.38;;;11.23;;
27269;SDS011;14769;56.934;24.176;2022-08-19T00:03:03;19.60;;;12.00;;
27269;SDS011;14769;56.934;24.176;2022-08-19T00:04:06;22.38;;;11.70;;
27269;SDS011;14769;56.934;24.176;2022-08-19T00:05:11;22.15;;;12.30;;
27269;SDS011;14769;56.934;24.176;2022-08-19T00:06:15;17.27;;;11.23;;
27269;SDS011;14769;56.934;24.176;2022-08-19T00:07:21;21.15;;;12.18;;
27269;SDS011;14769;56.934;24.176;2022-08-19T00:08:23;20.30;;;11.32;;
27269;SDS011;14769;56.934;24.176;2022-08-19T00:09:26;16.65;;;11.60;;
27269;SDS011;14769;56.934;24.176;2022-08-19T00:10:28;22.67;;;11.73;;
27269;SDS011;14769;56.934;24.176;2022-08-19T00:11:30;20.15;;;11.45;;
27269;SDS011;14769;56.934;24.176;2022-08-19T00:12:33;23.70;;;12.73;;
27269;SDS011;14769;56.934;24.176;2022-08-19T00:13:44;17.58;;;12.25;;
27269;SDS011;14769;56.934;24.176;2022-08-19T00:14:47;20.60;;;12.25;;
27269;SDS011;14769;56.934;24.176;2022-08-19T00:15:49;20.75;;;12.48;;
27269;SDS011;14769;56.934;24.176;2022-08-19T00:16:52;28.67;;;12.82;;
27269;SDS011;14769;56.934;24.176;2022-08-19T00:17:55;22.70;;;12.32;;
27269;SDS011;14769;56.934;24.176;2022-08-19T00:18:57;22.95;;;12.30;;
27269;SDS011;14769;56.934;24.176;2022-08-19T00:20:00;24.60;;;12.27;;
27269;SDS011;14769;56.934;24.176;2022-08-19T00:21:02;27.67;;;12.82;;
27269;SDS011;14769;56.934;24.176;2022-08-19T00:22:04;21.17;;;11.82;;
27269;SDS011;14769;56.934;24.176;2022-08-19T00:23:06;22.25;;;11.48;;
27269;SDS011;14769;56.934;24.176;2022-08-19T00:24:09;21.10;;;11.40;;
27269;SDS011;14769;56.934;24.176;2022-08-19T00:25:12;22.38;;;12.68;;
27269;SDS011;14769;56.934;24.176;2022-08-19T00:26:16;25.17;;;12.02;;
27269;SDS011;14769;56.934;24.176;2022-08-19T00:27:17;21.33;;;11.80;;
27269;SDS011;14769;56.934;24.176;2022-08-19T00:28:26;17.38;;;11.40;;
27269;SDS011;14769;56.934;24.176;2022-08-19T00:29:28;19.85;;;11.43;;
27269;SDS011;14769;56.934;24.176;2022-08-19T00:30:30;27.63;;;12.52;;
27269;SDS011;14769;56.934;24.176;2022-08-19T00:31:32;24.25;;;12.23;;
27269;SDS011;14769;56.934;24.176;2022-08-19T00:32:35;24.65;;;11.98;;
27269;SDS011;14769;56.934;24.176;2022-08-19T00:33:37;20.20;;;12.30;;
27269;SDS011;14769;56.934;24.176;2022-08-19T00:34:39;20.80;;;11.93;;
27269;SDS011;14769;56.934;24.176;2022-08-19T00:35:41;21.98;;;12.32;;
27269;SDS011;14769;56.934;24.176;2022-08-19T00:36:43;20.10;;;11.77;;
27269;SDS011;14769;56.934;24.176;2022-08-19T00:37:46;21.52;;;11.82;;
27269;SDS011;14769;56.934;24.176;2022-08-19T00:38:49;20.25;;;12.05;;
27269;SDS011;14769;56.934;24.176;2022-08-19T00:39:53;25.40;;;12.43;;
27269;SDS011;14769;56.934;24.176;2022-08-19T00:40:57;23.00;;;12.25;;
27269;SDS011;14769;56.934;24.176;2022-08-19T00:42:00;23.10;;;12.32;;
27269;SDS011;14769;56.934;24.176;2022-08-19T00:43:07;19.92;;;11.98;;
27269;SDS011;14769;56.934;24.176;2022-08-19T00:44:16;24.10;;;13.13;;
27269;SDS011;14769;56.934;24.176;2022-08-19T00:45:27;18.92;;;13.32;;
27269;SDS011;14769;56.934;24.176;2022-08-19T00:46:37;21.55;;;12.77;;
27269;SDS011;14769;56.934;24.176;2022-08-19T00:47:41;26.27;;;13.40;;
27269;SDS011;14769;56.934;24.176;2022-08-19T00:48:43;19.65;;;13.20;;
27269;SDS011;14769;56.934;24.176;2022-08-19T00:49:56;17.73;;;12.90;;
27269;SDS011;14769;56.934;24.176;2022-08-19T00:50:59;24.95;;;13.10;;
27269;SDS011;14769;56.934;24.176;2022-08-19T00:52:09;17.17;;;12.00;;
27269;SDS011;14769;56.934;24.176;2022-08-19T00:53:16;21.27;;;12.63;;
27269;SDS011;14769;56.934;24.176;2022-08-19T00:54:21;23.90;;;12.98;;
27269;SDS011;14769;56.934;24.176;2022-08-19T00:55:31;17.75;;;12.50;;
27269;SDS011;14769;56.934;24.176;2022-08-19T00:56:34;19.70;;;12.00;;
27269;SDS011;14769;56.934;24.176;2022-08-19T00:57:38;19.42;;;12.35;;
27269;SDS011;14769;56.934;24.176;2022-08-19T00:58:43;20.27;;;11.93;;
27269;SDS011;14769;56.934;24.176;2022-08-19T00:59:46;17.33;;;11.60;;
27269;SDS011;14769;56.934;24.176;2022-08-19T01:01:03;18.08;;;12.80;;
27269;SDS011;14769;56.934;24.176;2022-08-19T01:02:06;19.10;;;11.82;;
27269;SDS011;14769;56.934;24.176;2022-08-19T01:03:09;20.40;;;12.15;;
27269;SDS011;14769;56.934;24.176;2022-08-19T01:04:13;22.25;;;12.27;;
27269;SDS011;14769;56.934;24.176;2022-08-19T01:05:16;22.20;;;12.18;;
27269;SDS011;14769;56.934;24.176;2022-08-19T01:06:22;16.23;;;11.82;;
27269;SDS011;14769;56.934;24.176;2022-08-19T01:07:24;20.05;;;11.65;;
27269;SDS011;14769;56.934;24.176;2022-08-19T01:08:26;25.23;;;12.48;;
27269;SDS011;14769;56.934;24.176;2022-08-19T01:09:29;20.15;;;12.07;;
27269;SDS011;14769;56.934;24.176;2022-08-19T01:10:33;24.83;;;12.45;;
27269;SDS011;14769;56.934;24.176;2022-08-19T01:11:47;17.80;;;11.82;;
27269;SDS011;14769;56.934;24.176;2022-08-19T01:12:50;16.42;;;11.50;;
27269;SDS011;14769;56.934;24.176;2022-08-19T01:13:54;16.15;;;11.70;;
27269;SDS011;14769;56.934;24.176;2022-08-19T01:14:56;17.73;;;12.23;;
27269;SDS011;14769;56.934;24.176;2022-08-19T01:16:05;23.63;;;12.68;;
27269;SDS011;14769;56.934;24.176;2022-08-19T01:17:10;18.77;;;11.65;;
27269;SDS011;14769;56.934;24.176;2022-08-19T01:18:14;22.52;;;12.05;;
27269;SDS011;14769;56.934;24.176;2022-08-19T01:19:21;15.27;;;12.10;;
27269;SDS011;14769;56.934;24.176;2022-08-19T01:20:26;18.88;;;11.65;;
27269;SDS011;14769;56.934;24.176;2022-08-19T01:21:33;20.45;;;11.43;;
27269;SDS011;14769;56.934;24.176;2022-08-19T01:22:43;17.17;;;11.48;;
27269;SDS011;14769;56.934;24.176;2022-08-19T01:23:47;17.27;;;11.23;;
27269;SDS011;14769;56.934;24.176;2022-08-19T01:24:50;14.85;;;11.10;;
27269;SDS011;14769;56.934;24.176;2022-08-19T01:25:55;18.27;;;11.23;;
27269;SDS011;14769;56.934;24.176;2022-08-19T01:26:59;15.50;;;11.57;;
27269;SDS011;14769;56.934;24.176;2022-08-19T01:28:01;16.55;;;11.65;;
27269;SDS011;14769;56.934;24.176;2022-08-19T01:29:11;15.07;;;12.03;;
27269;SDS011;14769;56.934;24.176;2022-08-19T01:30:20;18.70;;;11.10;;
27269;SDS011;14769;56.934;24.176;2022-08-19T01:32:43;18.35;;;11.75;;
27269;SDS011;14769;56.934;24.176;2022-08-19T01:33:45;18.95;;;11.85;;
27269;SDS011;14769;56.934;24.176;2022-08-19T01:34:48;22.60;;;11.55;;
27269;SDS011;14769;56.934;24.176;2022-08-19T01:35:50;15.23;;;11.30;;
27269;SDS011;14769;56.934;24.176;2022-08-19T01:36:52;19.83;;;11.88;;
27269;SDS011;14769;56.934;24.176;2022-08-19T01:37:55;15.65;;;10.93;;
27269;SDS011;14769;56.934;24.176;2022-08-19T01:39:00;19.48;;;11.98;;
27269;SDS011;14769;56.934;24.176;2022-08-19T01:40:04;21.40;;;12.02;;
27269;SDS011;14769;56.934;24.176;2022-08-19T01:41:10;19.23;;;11.32;;
27269;SDS011;14769;56.934;24.176;2022-08-19T01:42:13;20.58;;;11.40;;
27269;SDS011;14769;56.934;24.176;2022-08-19T01:43:15;20.25;;;11.20;;
27269;SDS011;14769;56.934;24.176;2022-08-19T01:44:17;20.58;;;11.70;;
27269;SDS011;14769;56.934;24.176;2022-08-19T01:45:22;15.25;;;10.85;;
27269;SDS011;14769;56.934;24.176;2022-08-19T01:46:26;18.70;;;11.38;;
27269;SDS011;14769;56.934;24.176;2022-08-19T01:47:28;27.52;;;11.95;;
27269;SDS011;14769;56.934;24.176;2022-08-19T01:48:34;20.30;;;11.60;;
27269;SDS011;14769;56.934;24.176;2022-08-19T01:49:38;18.02;;;11.80;;
27269;SDS011;14769;56.934;24.176;2022-08-19T01:50:40;22.60;;;10.68;;
27269;SDS011;14769;56.934;24.176;2022-08-19T01:51:42;15.15;;;11.07;;
27269;SDS011;14769;56.934;24.176;2022-08-19T01:52:44;20.60;;;11.43;;
27269;SDS011;14769;56.934;24.176;2022-08-19T01:53:49;17.85;;;11.48;;
27269;SDS011;14769;56.934;24.176;2022-08-19T01:54:52;18.60;;;12.07;;
27269;SDS011;14769;56.934;24.176;2022-08-19T01:55:54;18.27;;;11.52;;
27269;SDS011;14769;56.934;24.176;2022-08-19T01:57:02;21.73;;;11.77;;
27269;SDS011;14769;56.934;24.176;2022-08-19T01:58:06;20.83;;;12.02;;
27269;SDS011;14769;56.934;24.176;2022-08-19T01:59:33;18.77;;;12.20;;
27269;SDS011;14769;56.934;24.176;2022-08-19T02:00:37;20.38;;;11.85;;
27269;SDS011;14769;56.934;24.176;2022-08-19T02:01:39;20.75;;;11.48;;
27269;SDS011;14769;56.934;24.176;2022-08-19T02:02:42;16.70;;;12.60;;
27269;SDS011;14769;56.934;24.176;2022-08-19T02:03:44;17.95;;;11.52;;
27269;SDS011;14769;56.934;24.176;2022-08-19T02:04:47;20.30;;;12.65;;
27269;SDS011;14769;56.934;24.176;2022-08-19T02:05:53;23.65;;;12.80;;
27269;SDS011;14769;56.934;24.176;2022-08-19T02:07:01;22.60;;;12.15;;
27269;SDS011;14769;56.934;24.176;2022-08-19T02:08:04;18.90;;;12.50;;
27269;SDS011;14769;56.934;24.176;2022-08-19T02:09:06;18.55;;;12.10;;
27269;SDS011;14769;56.934;24.176;2022-08-19T02:10:12;21.90;;;12.50;;
27269;SDS011;14769;56.934;24.176;2022-08-19T02:11:20;21.92;;;12.20;;
27269;SDS011;14769;56.934;24.176;2022-08-19T02:12:27;26.35;;;12.45;;
27269;SDS011;14769;56.934;24.176;2022-08-19T02:13:29;21.60;;;12.73;;
27269;SDS011;14769;56.934;24.176;2022-08-19T02:14:33;18.08;;;13.60;;
27269;SDS011;14769;56.934;24.176;2022-08-19T02:15:36;16.92;;;12.57;;
27269;SDS011;14769;56.934;24.176;2022-08-19T02:16:38;16.73;;;12.00;;
27269;SDS011;14769;56.934;24.176;2022-08-19T02:17:42;21.98;;;12.95;;
27269;SDS011;14769;56.934;24.176;2022-08-19T02:18:44;20.25;;;13.65;;
27269;SDS011;14769;56.934;24.176;2022-08-19T02:19:46;19.92;;;12.85;;
27269;SDS011;14769;56.934;24.176;2022-08-19T02:20:50;20.05;;;12.25;;
27269;SDS011;14769;56.934;24.176;2022-08-19T02:21:52;21.55;;;13.38;;
27269;SDS011;14769;56.934;24.176;2022-08-19T02:22:54;27.35;;;12.52;;
27269;SDS011;14769;56.934;24.176;2022-08-19T02:23:56;22.17;;;13.10;;
27269;SDS011;14769;56.934;24.176;2022-08-19T02:24:58;20.65;;;13.02;;
27269;SDS011;14769;56.934;24.176;2022-08-19T02:26:01;20.45;;;12.20;;
27269;SDS011;14769;56.934;24.176;2022-08-19T02:27:03;25.30;;;13.65;;
27269;SDS011;14769;56.934;24.176;2022-08-19T02:28:06;19.08;;;13.48;;
27269;SDS011;14769;56.934;24.176;2022-08-19T02:29:08;23.33;;;12.63;;
27269;SDS011;14769;56.934;24.176;2022-08-19T02:30:16;27.10;;;13.35;;
27269;SDS011;14769;56.934;24.176;2022-08-19T02:31:20;22.13;;;12.98;;
27269;SDS011;14769;56.934;24.176;2022-08-19T02:32:25;19.48;;;12.45;;
27269;SDS011;14769;56.934;24.176;2022-08-19T02:33:28;21.73;;;13.15;;
27269;SDS011;14769;56.934;24.176;2022-08-19T02:34:31;18.65;;;12.90;;
27269;SDS011;14769;56.934;24.176;2022-08-19T02:35:33;21.95;;;12.57;;
27269;SDS011;14769;56.934;24.176;2022-08-19T02:36:35;21.02;;;11.95;;
27269;SDS011;14769;56.934;24.176;2022-08-19T02:37:42;15.00;;;12.90;;
27269;SDS011;14769;56.934;24.176;2022-08-19T02:39:03;17.27;;;12.20;;
27269;SDS011;14769;56.934;24.176;2022-08-19T02:40:06;17.95;;;12.90;;
27269;SDS011;14769;56.934;24.176;2022-08-19T02:41:15;20.60;;;12.80;;
27269;SDS011;14769;56.934;24.176;2022-08-19T02:42:26;19.73;;;12.80;;
27269;SDS011;14769;56.934;24.176;2022-08-19T02:43:29;23.90;;;12.73;;
27269;SDS011;14769;56.934;24.176;2022-08-19T02:44:34;16.92;;;12.65;;
27269;SDS011;14769;56.934;24.176;2022-08-19T02:45:37;20.38;;;13.25;;
27269;SDS011;14769;56.934;24.176;2022-08-19T02:46:42;23.42;;;12.70;;
27269;SDS011;14769;56.934;24.176;2022-08-19T02:47:46;23.20;;;13.35;;
27269;SDS011;14769;56.934;24.176;2022-08-19T02:48:48;22.83;;;13.30;;
27269;SDS011;14769;56.934;24.176;2022-08-19T02:49:51;16.65;;;13.05;;
27269;SDS011;14769;56.934;24.176;2022-08-19T02:50:53;21.60;;;12.60;;
27269;SDS011;14769;56.934;24.176;2022-08-19T02:51:58;18.30;;;11.77;;
27269;SDS011;14769;56.934;24.176;2022-08-19T02:53:00;22.08;;;12.43;;
27269;SDS011;14769;56.934;24.176;2022-08-19T02:54:02;17.88;;;12.48;;
27269;SDS011;14769;56.934;24.176;2022-08-19T02:55:05;17.30;;;12.18;;
27269;SDS011;14769;56.934;24.176;2022-08-19T02:56:08;20.90;;;12.52;;
27269;SDS011;14769;56.934;24.176;2022-08-19T02:57:10;21.88;;;13.00;;
27269;SDS011;14769;56.934;24.176;2022-08-19T02:58:12;21.15;;;11.80;;
27269;SDS011;14769;56.934;24.176;2022-08-19T02:59:15;21.27;;;12.32;;
27269;SDS011;14769;56.934;24.176;2022-08-19T03:00:20;18.38;;;12.07;;
27269;SDS011;14769;56.934;24.176;2022-08-19T03:01:31;21.65;;;11.77;;
27269;SDS011;14769;56.934;24.176;2022-08-19T03:02:34;16.02;;;11.55;;
27269;SDS011;14769;56.934;24.176;2022-08-19T03:03:36;20.70;;;12.00;;
27269;SDS011;14769;56.934;24.176;2022-08-19T03:04:38;16.05;;;11.77;;
27269;SDS011;14769;56.934;24.176;2022-08-19T03:05:41;17.55;;;12.23;;
27269;SDS011;14769;56.934;24.176;2022-08-19T03:06:56;19.80;;;11.82;;
27269;SDS011;14769;56.934;24.176;2022-08-19T03:08:11;18.58;;;12.20;;
27269;SDS011;14769;56.934;24.176;2022-08-19T03:09:14;16.58;;;12.55;;
27269;SDS011;14769;56.934;24.176;2022-08-19T03:10:17;19.45;;;13.20;;
27269;SDS011;14769;56.934;24.176;2022-08-19T03:11:20;21.60;;;11.95;;
27269;SDS011;14769;56.934;24.176;2022-08-19T03:12:24;14.90;;;12.23;;
27269;SDS011;14769;56.934;24.176;2022-08-19T03:13:26;19.90;;;12.10;;
27269;SDS011;14769;56.934;24.176;2022-08-19T03:14:32;19.25;;;12.25;;
27269;SDS011;14769;56.934;24.176;2022-08-19T03:15:38;18.10;;;12.43;;
27269;SDS011;14769;56.934;24.176;2022-08-19T03:16:45;17.95;;;12.73;;
27269;SDS011;14769;56.934;24.176;2022-08-19T03:17:51;18.23;;;11.93;;
27269;SDS011;14769;56.934;24.176;2022-08-19T03:18:55;16.50;;;13.23;;
27269;SDS011;14769;56.934;24.176;2022-08-19T03:19:58;17.80;;;12.85;;
27269;SDS011;14769;56.934;24.176;2022-08-19T03:21:00;15.55;;;11.93;;
27269;SDS011;14769;56.934;24.176;2022-08-19T03:22:02;25.08;;;13.18;;
27269;SDS011;14769;56.934;24.176;2022-08-19T03:23:05;16.02;;;12.35;;
27269;SDS011;14769;56.934;24.176;2022-08-19T03:24:08;22.02;;;12.77;;
27269;SDS011;14769;56.934;24.176;2022-08-19T03:25:10;16.20;;;12.50;;
27269;SDS011;14769;56.934;24.176;2022-08-19T03:26:13;21.10;;;12.57;;
27269;SDS011;14769;56.934;24.176;2022-08-19T03:27:17;20.70;;;11.85;;
27269;SDS011;14769;56.934;24.176;2022-08-19T03:28:19;14.88;;;12.32;;
27269;SDS011;14769;56.934;24.176;2022-08-19T03:29:22;23.35;;;12.20;;
27269;SDS011;14769;56.934;24.176;2022-08-19T03:30:31;18.15;;;12.98;;
27269;SDS011;14769;56.934;24.176;2022-08-19T03:31:33;18.60;;;12.88;;
27269;SDS011;14769;56.934;24.176;2022-08-19T03:32:51;18.35;;;12.48;;
27269;SDS011;14769;56.934;24.176;2022-08-19T03:33:57;25.02;;;12.13;;
27269;SDS011;14769;56.934;24.176;2022-08-19T03:34:59;19.23;;;13.13;;
27269;SDS011;14769;56.934;24.176;2022-08-19T03:37:16;19.00;;;11.95;;
27269;SDS011;14769;56.934;24.176;2022-08-19T03:38:18;21.88;;;13.02;;
27269;SDS011;14769;56.934;24.176;2022-08-19T03:39:20;23.52;;;13.07;;
27269;SDS011;14769;56.934;24.176;2022-08-19T03:40:22;17.25;;;12.68;;
27269;SDS011;14769;56.934;24.176;2022-08-19T03:41:25;19.45;;;12.80;;
27269;SDS011;14769;56.934;24.176;2022-08-19T03:42:43;16.60;;;12.57;;
27269;SDS011;14769;56.934;24.176;2022-08-19T03:43:57;20.08;;;12.32;;
27269;SDS011;14769;56.934;24.176;2022-08-19T03:44:59;18.35;;;12.00;;
27269;SDS011;14769;56.934;24.176;2022-08-19T03:46:05;17.27;;;11.80;;
27269;SDS011;14769;56.934;24.176;2022-08-19T03:47:09;20.63;;;12.80;;
27269;SDS011;14769;56.934;24.176;2022-08-19T03:48:16;18.60;;;12.18;;
27269;SDS011;14769;56.934;24.176;2022-08-19T03:49:18;19.95;;;11.35;;
27269;SDS011;14769;56.934;24.176;2022-08-19T03:50:27;19.45;;;11.68;;
27269;SDS011;14769;56.934;24.176;2022-08-19T03:51:31;15.88;;;11.63;;
27269;SDS011;14769;56.934;24.176;2022-08-19T03:52:36;21.75;;;12.27;;
27269;SDS011;14769;56.934;24.176;2022-08-19T03:53:38;19.35;;;11.35;;
27269;SDS011;14769;56.934;24.176;2022-08-19T03:54:41;17.23;;;12.05;;
27269;SDS011;14769;56.934;24.176;2022-08-19T03:55:43;15.32;;;11.80;;
27269;SDS011;14769;56.934;24.176;2022-08-19T03:56:47;19.73;;;12.23;;
27269;SDS011;14769;56.934;24.176;2022-08-19T03:57:50;18.80;;;11.90;;
27269;SDS011;14769;56.934;24.176;2022-08-19T03:58:58;21.92;;;11.68;;
27269;SDS011;14769;56.934;24.176;2022-08-19T04:00:03;18.73;;;12.15;;
27269;SDS011;14769;56.934;24.176;2022-08-19T04:01:15;19.65;;;12.20;;
27269;SDS011;14769;56.934;24.176;2022-08-19T04:02:20;20.70;;;11.88;;
27269;SDS011;14769;56.934;24.176;2022-08-19T04:03:23;21.13;;;11.77;;
27269;SDS011;14769;56.934;24.176;2022-08-19T04:04:28;23.45;;;12.48;;
27269;SDS011;14769;56.934;24.176;2022-08-19T04:05:32;20.42;;;12.20;;
27269;SDS011;14769;56.934;24.176;2022-08-19T04:06:34;16.45;;;11.90;;
27269;SDS011;14769;56.934;24.176;2022-08-19T04:07:40;23.52;;;12.15;;
27269;SDS011;14769;56.934;24.176;2022-08-19T04:08:42;19.02;;;11.80;;
27269;SDS011;14769;56.934;24.176;2022-08-19T04:09:46;21.38;;;11.98;;
27269;SDS011;14769;56.934;24.176;2022-08-19T04:10:48;13.80;;;11.35;;
27269;SDS011;14769;56.934;24.176;2022-08-19T04:11:52;19.08;;;11.95;;
27269;SDS011;14769;56.934;24.176;2022-08-19T04:12:55;17.25;;;11.40;;
27269;SDS011;14769;56.934;24.176;2022-08-19T04:13:57;19.40;;;12.50;;
27269;SDS011;14769;56.934;24.176;2022-08-19T04:15:04;22.58;;;12.05;;
27269;SDS011;14769;56.934;24.176;2022-08-19T04:16:07;17.33;;;11.65;;
27269;SDS011;14769;56.934;24.176;2022-08-19T04:17:11;16.90;;;11.90;;
27269;SDS011;14769;56.934;24.176;2022-08-19T04:18:15;20.23;;;11.82;;
27269;SDS011;14769;56.934;24.176;2022-08-19T04:19:18;16.80;;;11.40;;
27269;SDS011;14769;56.934;24.176;2022-08-19T04:20:21;20.20;;;10.70;;
27269;SDS011;14769;56.934;24.176;2022-08-19T04:21:24;20.98;;;12.00;;
27269;SDS011;14769;56.934;24.176;2022-08-19T04:22:28;18.80;;;11.38;;
27269;SDS011;14769;56.934;24.176;2022-08-19T04:23:30;16.10;;;10.95;;
27269;SDS011;14769;56.934;24.176;2022-08-19T04:24:33;17.33;;;11.80;;
27269;SDS011;14769;56.934;24.176;2022-08-19T04:25:40;18.83;;;11.18;;
27269;SDS011;14769;56.934;24.176;2022-08-19T04:26:43;15.55;;;11.43;;
27269;SDS011;14769;56.934;24.176;2022-08-19T04:27:46;17.85;;;10.93;;
27269;SDS011;14769;56.934;24.176;2022-08-19T04:28:49;17.90;;;10.88;;
27269;SDS011;14769;56.934;24.176;2022-08-19T04:29:53;17.55;;;10.30;;
27269;SDS011;14769;56.934;24.176;2022-08-19T04:30:56;17.08;;;11.13;;
27269;SDS011;14769;56.934;24.176;2022-08-19T04:31:59;17.50;;;10.73;;
27269;SDS011;14769;56.934;24.176;2022-08-19T04:33:10;19.33;;;10.95;;
27269;SDS011;14769;56.934;24.176;2022-08-19T04:34:14;16.23;;;10.48;;
27269;SDS011;14769;56.934;24.176;2022-08-19T04:35:18;19.38;;;11.13;;
27269;SDS011;14769;56.934;24.176;2022-08-19T04:36:26;17.95;;;11.35;;
27269;SDS011;14769;56.934;24.176;2022-08-19T04:37:30;13.15;;;10.07;;
27269;SDS011;14769;56.934;24.176;2022-08-19T04:38:35;18.23;;;10.43;;
27269;SDS011;14769;56.934;24.176;2022-08-19T04:39:38;16.75;;;10.70;;
27269;SDS011;14769;56.934;24.176;2022-08-19T04:41:03;14.60;;;10.23;;
27269;SDS011;14769;56.934;24.176;2022-08-19T04:42:23;16.20;;;10.77;;
27269;SDS011;14769;56.934;24.176;2022-08-19T04:43:41;18.20;;;10.40;;
27269;SDS011;14769;56.934;24.176;2022-08-19T04:44:43;19.73;;;10.98;;
27269;SDS011;14769;56.934;24.176;2022-08-19T04:45:46;20.02;;;10.00;;
27269;SDS011;14769;56.934;24.176;2022-08-19T04:46:52;20.33;;;11.05;;
27269;SDS011;14769;56.934;24.176;2022-08-19T04:47:55;15.27;;;10.25;;
27269;SDS011;14769;56.934;24.176;2022-08-19T04:49:20;21.02;;;10.20;;
27269;SDS011;14769;56.934;24.176;2022-08-19T04:50:24;19.77;;;10.13;;
27269;SDS011;14769;56.934;24.176;2022-08-19T04:51:27;17.92;;;9.57;;
27269;SDS011;14769;56.934;24.176;2022-08-19T04:52:31;16.00;;;10.48;;
27269;SDS011;14769;56.934;24.176;2022-08-19T04:53:35;17.15;;;9.98;;
27269;SDS011;14769;56.934;24.176;2022-08-19T04:54:38;15.25;;;9.95;;
27269;SDS011;14769;56.934;24.176;2022-08-19T04:55:41;13.57;;;9.93;;
27269;SDS011;14769;56.934;24.176;2022-08-19T04:56:43;16.25;;;9.38;;
27269;SDS011;14769;56.934;24.176;2022-08-19T04:57:45;18.23;;;9.48;;
27269;SDS011;14769;56.934;24.176;2022-08-19T04:58:48;19.73;;;10.77;;
27269;SDS011;14769;56.934;24.176;2022-08-19T04:59:56;19.77;;;9.95;;
27269;SDS011;14769;56.934;24.176;2022-08-19T05:00:58;12.48;;;9.52;;
27269;SDS011;14769;56.934;24.176;2022-08-19T05:02:01;16.70;;;9.95;;
27269;SDS011;14769;56.934;24.176;2022-08-19T05:03:04;16.95;;;9.70;;
27269;SDS011;14769;56.934;24.176;2022-08-19T05:04:08;12.27;;;9.55;;
27269;SDS011;14769;56.934;24.176;2022-08-19T05:05:10;16.05;;;9.05;;
27269;SDS011;14769;56.934;24.176;2022-08-19T05:06:14;20.92;;;9.75;;
27269;SDS011;14769;56.934;24.176;2022-08-19T05:07:17;18.00;;;10.20;;
27269;SDS011;14769;56.934;24.176;2022-08-19T05:08:20;15.60;;;9.82;;
27269;SDS011;14769;56.934;24.176;2022-08-19T05:09:31;34.92;;;12.63;;
27269;SDS011;14769;56.934;24.176;2022-08-19T05:10:53;22.67;;;10.40;;
27269;SDS011;14769;56.934;24.176;2022-08-19T05:11:55;23.95;;;10.18;;
27269;SDS011;14769;56.934;24.176;2022-08-19T05:12:57;18.52;;;10.60;;
27269;SDS011;14769;56.934;24.176;2022-08-19T05:14:00;13.80;;;8.98;;
27269;SDS011;14769;56.934;24.176;2022-08-19T05:15:03;13.50;;;9.65;;
27269;SDS011;14769;56.934;24.176;2022-08-19T05:16:07;17.48;;;9.57;;
27269;SDS011;14769;56.934;24.176;2022-08-19T05:17:09;14.77;;;9.82;;
27269;SDS011;14769;56.934;24.176;2022-08-19T05:18:28;16.60;;;9.43;;
27269;SDS011;14769;56.934;24.176;2022-08-19T05:19:49;19.60;;;9.32;;
27269;SDS011;14769;56.934;24.176;2022-08-19T05:21:10;15.10;;;8.90;;
27269;SDS011;14769;56.934;24.176;2022-08-19T05:22:33;14.35;;;9.25;;
27269;SDS011;14769;56.934;24.176;2022-08-19T05:23:38;19.98;;;9.20;;
27269;SDS011;14769;56.934;24.176;2022-08-19T05:24:40;13.50;;;9.43;;
27269;SDS011;14769;56.934;24.176;2022-08-19T05:26:02;19.05;;;9.73;;
27269;SDS011;14769;56.934;24.176;2022-08-19T05:27:05;15.75;;;8.98;;
27269;SDS011;14769;56.934;24.176;2022-08-19T05:28:07;16.42;;;9.77;;
27269;SDS011;14769;56.934;24.176;2022-08-19T05:29:09;14.82;;;8.50;;
27269;SDS011;14769;56.934;24.176;2022-08-19T05:30:11;14.98;;;9.48;;
27269;SDS011;14769;56.934;24.176;2022-08-19T05:31:13;13.40;;;9.57;;
27269;SDS011;14769;56.934;24.176;2022-08-19T05:32:15;17.65;;;9.50;;
27269;SDS011;14769;56.934;24.176;2022-08-19T05:33:18;16.45;;;9.38;;
27269;SDS011;14769;56.934;24.176;2022-08-19T05:34:21;14.93;;;8.80;;
27269;SDS011;14769;56.934;24.176;2022-08-19T05:35:26;14.52;;;8.93;;
27269;SDS011;14769;56.934;24.176;2022-08-19T05:36:44;16.67;;;9.13;;
27269;SDS011;14769;56.934;24.176;2022-08-19T05:37:46;13.85;;;8.80;;
27269;SDS011;14769;56.934;24.176;2022-08-19T05:38:55;14.88;;;8.35;;
27269;SDS011;14769;56.934;24.176;2022-08-19T05:39:57;17.15;;;9.00;;
27269;SDS011;14769;56.934;24.176;2022-08-19T05:40:59;14.38;;;8.48;;
27269;SDS011;14769;56.934;24.176;2022-08-19T05:42:02;16.58;;;8.98;;
27269;SDS011;14769;56.934;24.176;2022-08-19T05:43:07;14.60;;;8.80;;
27269;SDS011;14769;56.934;24.176;2022-08-19T05:44:10;15.32;;;8.52;;
27269;SDS011;14769;56.934;24.176;2022-08-19T05:45:12;14.13;;;8.20;;
27269;SDS011;14769;56.934;24.176;2022-08-19T05:46:17;12.85;;;8.15;;
27269;SDS011;14769;56.934;24.176;2022-08-19T05:47:28;15.80;;;8.98;;
27269;SDS011;14769;56.934;24.176;2022-08-19T05:48:30;11.00;;;8.27;;
27269;SDS011;14769;56.934;24.176;2022-08-19T05:49:34;15.23;;;8.90;;
27269;SDS011;14769;56.934;24.176;2022-08-19T05:50:38;14.13;;;8.50;;
27269;SDS011;14769;56.934;24.176;2022-08-19T05:51:41;16.05;;;7.97;;
27269;SDS011;14769;56.934;24.176;2022-08-19T05:52:44;12.32;;;8.45;;
27269;SDS011;14769;56.934;24.176;2022-08-19T05:53:51;13.82;;;8.85;;
27269;SDS011;14769;56.934;24.176;2022-08-19T05:54:53;11.20;;;8.07;;
27269;SDS011;14769;56.934;24.176;2022-08-19T05:55:57;12.60;;;7.90;;
27269;SDS011;14769;56.934;24.176;2022-08-19T05:56:59;17.65;;;8.68;;
27269;SDS011;14769;56.934;24.176;2022-08-19T05:58:02;16.20;;;9.07;;
27269;SDS011;14769;56.934;24.176;2022-08-19T05:59:04;11.73;;;8.05;;
27269;SDS011;14769;56.934;24.176;2022-08-19T06:00:10;14.07;;;7.95;;
27269;SDS011;14769;56.934;24.176;2022-08-19T06:01:15;12.93;;;8.00;;
27269;SDS011;14769;56.934;24.176;2022-08-19T06:02:19;12.35;;;8.38;;
27269;SDS011;14769;56.934;24.176;2022-08-19T06:03:21;15.75;;;8.68;;
27269;SDS011;14769;56.934;24.176;2022-08-19T06:04:23;18.70;;;8.68;;
27269;SDS011;14769;56.934;24.176;2022-08-19T06:05:25;12.00;;;8.10;;
27269;SDS011;14769;56.934;24.176;2022-08-19T06:06:27;14.85;;;8.27;;
27269;SDS011;14769;56.934;24.176;2022-08-19T06:07:30;14.93;;;8.45;;
27269;SDS011;14769;56.934;24.176;2022-08-19T06:08:32;15.80;;;7.95;;
27269;SDS011;14769;56.934;24.176;2022-08-19T06:09:35;12.93;;;8.23;;
27269;SDS011;14769;56.934;24.176;2022-08-19T06:10:38;11.23;;;7.75;;
27269;SDS011;14769;56.934;24.176;2022-08-19T06:11:41;11.25;;;7.93;;
27269;SDS011;14769;56.934;24.176;2022-08-19T06:12:46;16.83;;;8.05;;
27269;SDS011;14769;56.934;24.176;2022-08-19T06:13:49;11.23;;;8.13;;
27269;SDS011;14769;56.934;24.176;2022-08-19T06:15:00;14.20;;;8.48;;
27269;SDS011;14769;56.934;24.176;2022-08-19T06:16:09;20.05;;;8.32;;
27269;SDS011;14769;56.934;24.176;2022-08-19T06:17:11;12.82;;;7.55;;